Time;durP1;ratioP1;P1;durP2;ratioP2;P2;SDS_P1;SDS_P2;PMS_P1;PMS_P2;Temp;Humidity;BMP_temperature;BMP_pressure;BME280_temperature;BME280_humidity;BME280_pressure;Samples;Min_cycle;Max_cycle;Signal;HPM_P1;HPM_P2
2021/06/15 00:00:45;;;;;;;2.87;1.30;;;21.40;50.70;;;;;;2489820;55;20992;-87
2021/06/15 00:03:12;;;;;;;2.72;1.30;;;21.30;50.70;;;;;;2486020;54;20965;-87
2021/06/15 00:05:38;;;;;;;3.40;1.12;;;21.30;50.70;;;;;;2291414;54;20941;-87
2021/06/15 00:08:04;;;;;;;2.65;0.85;;;21.30;50.70;;;;;;2496635;54;20944;-89
2021/06/15 00:10:30;;;;;;;2.50;1.15;;;21.20;50.70;;;;;;2264544;56;20933;-87
2021/06/15 00:12:57;;;;;;;2.40;1.10;;;21.20;50.60;;;;;;2488620;54;20989;-87
2021/06/15 00:15:23;;;;;;;2.35;1.12;;;21.20;50.60;;;;;;2488354;55;20997;-85
2021/06/15 00:17:50;;;;;;;2.20;0.90;;;21.10;50.60;;;;;;2487864;54;20972;-86
2021/06/15 00:20:16;;;;;;;3.70;1.30;;;21.10;50.70;;;;;;2290335;54;21005;-85
2021/06/15 00:22:43;;;;;;;4.32;1.10;;;21.00;50.70;;;;;;2487981;54;21028;-84
2021/06/15 00:25:10;;;;;;;2.50;1.15;;;21.10;51.00;;;;;;2247163;56;21256;-85
2021/06/15 00:27:36;;;;;;;2.92;1.15;;;20.90;51.00;;;;;;2264214;55;20921;-85
2021/06/15 00:30:04;;;;;;;4.15;1.25;;;20.90;51.00;;;;;;2264293;56;20920;-84
2021/06/15 00:32:30;;;;;;;2.37;1.10;;;20.90;51.20;;;;;;2250800;56;20933;-84
2021/06/15 00:34:56;;;;;;;2.10;0.93;;;20.80;51.20;;;;;;2266276;55;20984;-85
2021/06/15 00:37:23;;;;;;;2.30;1.10;;;20.80;51.30;;;;;;2486662;55;20928;-84
2021/06/15 00:39:49;;;;;;;3.17;1.10;;;20.80;51.40;;;;;;2266627;56;20909;-87
2021/06/15 00:42:16;;;;;;;5.00;1.48;;;20.70;51.40;;;;;;2265296;55;21024;-86
2021/06/15 00:44:42;;;;;;;3.05;1.35;;;20.70;51.50;;;;;;2485715;55;20980;-88
2021/06/15 00:47:08;;;;;;;3.45;1.23;;;20.70;51.60;;;;;;2268834;55;22112;-87
2021/06/15 00:49:36;;;;;;;2.97;1.20;;;20.60;51.60;;;;;;2471975;54;20945;-87
2021/06/15 00:52:04;;;;;;;3.62;1.40;;;20.60;51.70;;;;;;2256867;55;21649;-87
2021/06/15 00:54:30;;;;;;;3.33;1.33;;;20.60;51.80;;;;;;2266932;55;20928;-86
2021/06/15 00:56:56;;;;;;;2.60;1.23;;;20.50;51.80;;;;;;2262615;55;20964;-86
2021/06/15 00:59:23;;;;;;;3.62;1.33;;;20.50;52.00;;;;;;2486944;55;21004;-87
2021/06/15 01:01:51;;;;;;;2.45;1.05;;;20.50;52.10;;;;;;2485087;54;20973;-86
2021/06/15 01:04:18;;;;;;;2.67;1.30;;;20.40;52.00;;;;;;2263768;54;20973;-87
2021/06/15 01:07:15;;;;;;;3.17;1.25;;;20.40;52.10;;;;;;2266713;54;21000;-88
2021/06/15 01:09:49;;;;;;;3.15;1.20;;;20.40;52.50;;;;;;2267536;55;20981;-86
2021/06/15 01:12:34;;;;;;;3.80;1.40;;;20.30;52.10;;;;;;2485140;54;20940;-86
2021/06/15 01:16:47;;;;;;;2.60;1.48;;;20.30;52.50;;;;;;2486967;55;20929;-87
2021/06/15 01:20:44;;;;;;;2.87;1.15;;;20.20;52.40;;;;;;2489943;55;20953;-88
2021/06/15 01:25:06;;;;;;;2.83;1.08;;;20.20;52.50;;;;;;2490329;54;20987;-87
2021/06/15 01:29:31;;;;;;;2.53;1.17;;;20.10;52.30;;;;;;2489503;55;21009;-86
2021/06/15 01:32:07;;;;;;;2.72;1.10;;;20.10;52.40;;;;;;2490800;54;21268;-86
2021/06/15 01:34:35;;;;;;;2.58;1.12;;;20.00;52.20;;;;;;2227016;56;21448;-85
2021/06/15 01:37:25;;;;;;;2.42;1.20;;;20.00;52.30;;;;;;2469385;55;20944;-85
2021/06/15 01:40:36;;;;;;;2.37;1.20;;;19.90;52.90;;;;;;2269784;54;20980;-85
2021/06/15 01:43:03;;;;;;;4.25;1.35;;;19.90;52.80;;;;;;2488093;55;21964;-85
2021/06/15 01:45:37;;;;;;;1.92;1.12;;;19.80;52.40;;;;;;2266607;55;22026;-85
2021/06/15 01:48:24;;;;;;;3.72;1.48;;;19.80;52.60;;;;;;2484495;55;20968;-84
2021/06/15 01:50:50;;;;;;;4.30;1.50;;;19.80;52.80;;;;;;2456740;55;20914;-84
2021/06/15 01:53:17;;;;;;;2.65;1.40;;;19.70;52.60;;;;;;2484958;55;21268;-84
2021/06/15 01:55:49;;;;;;;2.40;1.08;;;19.70;52.70;;;;;;2486994;55;21263;-84
2021/06/15 01:58:16;;;;;;;3.55;1.42;;;19.70;52.90;;;;;;2266231;56;20956;-85
2021/06/15 02:00:42;;;;;;;2.78;1.33;;;19.70;52.80;;;;;;2486687;55;21750;-84
2021/06/15 02:03:08;;;;;;;3.42;1.40;;;19.60;52.80;;;;;;2486672;55;20972;-85
2021/06/15 02:05:41;;;;;;;2.92;1.40;;;19.50;52.80;;;;;;2487101;55;21565;-85
2021/06/15 02:08:07;;;;;;;;;;;19.60;53.10;;;;;;2499751;55;20955;-86
2021/06/15 02:10:33;;;;;;;2.78;1.30;;;19.60;53.00;;;;;;2266229;54;20054;-86
2021/06/15 02:13:00;;;;;;;3.30;1.50;;;19.60;52.80;;;;;;2475325;55;21862;-84
2021/06/15 02:15:26;;;;;;;2.40;1.08;;;19.50;53.00;;;;;;2485836;54;20973;-84
2021/06/15 02:17:53;;;;;;;2.95;1.20;;;19.50;53.10;;;;;;2486119;54;20944;-85
2021/06/15 02:20:20;;;;;;;2.65;1.15;;;19.50;53.20;;;;;;2263927;56;20952;-84
2021/06/15 02:22:47;;;;;;;3.10;1.67;;;19.40;53.20;;;;;;2487171;54;20908;-87
2021/06/15 02:25:18;;;;;;;3.17;1.50;;;19.40;53.30;;;;;;2487575;54;21060;-86
2021/06/15 02:27:45;;;;;;;3.33;1.42;;;19.40;53.40;;;;;;2487531;55;21958;-85
2021/06/15 02:30:12;;;;;;;2.72;1.30;;;19.40;53.60;;;;;;2487425;55;20981;-85
2021/06/15 02:32:39;;;;;;;3.05;1.62;;;19.40;53.70;;;;;;2263820;54;20970;-85
2021/06/15 02:35:07;;;;;;;3.15;1.50;;;19.30;53.60;;;;;;2264737;55;20885;-86
2021/06/15 02:37:37;;;;;;;2.67;1.35;;;19.30;53.60;;;;;;2263885;55;20920;-85
2021/06/15 02:40:04;;;;;;;4.03;1.37;;;19.40;53.80;;;;;;2487551;55;21256;-86
2021/06/15 02:42:30;;;;;;;2.80;1.37;;;19.30;53.70;;;;;;2487575;55;20932;-86
2021/06/15 02:44:57;;;;;;;4.28;1.40;;;19.20;53.60;;;;;;2450442;55;21049;-86
2021/06/15 02:47:24;;;;;;;2.75;1.50;;;19.40;53.90;;;;;;2475564;54;20968;-86
2021/06/15 02:49:58;;;;;;;3.15;1.52;;;19.20;53.80;;;;;;2264447;56;21004;-86
2021/06/15 02:52:30;;;;;;;3.45;1.60;;;19.20;54.20;;;;;;2261321;55;21197;-88
2021/06/15 02:55:11;;;;;;;3.42;1.48;;;19.20;54.00;;;;;;2490807;54;22191;-87
2021/06/15 02:57:37;;;;;;;2.53;1.40;;;19.20;54.00;;;;;;2246146;56;21032;-88
2021/06/15 03:00:07;;;;;;;3.45;1.30;;;19.10;53.80;;;;;;2484954;54;21056;-86
2021/06/15 03:02:34;;;;;;;4.65;1.92;;;19.10;54.00;;;;;;2258729;55;22001;-85
2021/06/15 03:05:00;;;;;;;2.85;1.40;;;19.10;54.10;;;;;;2268223;55;20980;-85
2021/06/15 03:07:27;;;;;;;3.50;1.50;;;19.10;54.20;;;;;;2265808;55;21007;-85
2021/06/15 03:09:53;;;;;;;2.92;1.42;;;19.00;54.10;;;;;;2264138;54;21016;-87
2021/06/15 03:12:21;;;;;;;3.58;1.75;;;19.00;54.10;;;;;;2487488;55;20970;-86
2021/06/15 03:15:06;;;;;;;3.58;1.70;;;19.00;54.10;;;;;;2485491;54;21016;-87
2021/06/15 03:17:32;;;;;;;3.10;1.58;;;19.00;54.50;;;;;;2483465;55;21056;-84
2021/06/15 03:20:02;;;;;;;3.15;1.60;;;18.90;54.20;;;;;;2487287;55;20928;-86
2021/06/15 03:22:31;;;;;;;3.58;1.52;;;18.90;54.40;;;;;;2492079;55;21000;-85
2021/06/15 03:25:02;;;;;;;3.03;1.27;;;18.90;54.50;;;;;;2462446;55;21040;-85
2021/06/15 03:27:36;;;;;;;2.95;1.40;;;18.90;54.70;;;;;;2506748;54;21020;-84
2021/06/15 03:30:07;;;;;;;3.10;1.67;;;18.90;54.80;;;;;;2493492;55;20937;-84
2021/06/15 03:32:33;;;;;;;2.70;1.35;;;18.80;54.80;;;;;;2264105;55;20916;-86
2021/06/15 03:34:59;;;;;;;4.65;1.40;;;18.80;54.70;;;;;;2485669;55;20908;-84
2021/06/15 03:37:26;;;;;;;3.15;1.30;;;18.80;54.70;;;;;;2267511;55;20955;-85
2021/06/15 03:39:54;;;;;;;3.35;1.45;;;18.80;54.80;;;;;;2485145;55;20956;-85
2021/06/15 03:42:25;;;;;;;4.25;1.58;;;18.70;54.90;;;;;;2485084;55;20992;-86
2021/06/15 03:45:00;;;;;;;;;;;18.70;55.10;;;;;;2250922;55;20953;-84
2021/06/15 03:47:26;;;;;;;4.87;1.30;;;18.70;55.80;;;;;;2294092;55;20881;-86
2021/06/15 03:49:54;;;;;;;4.62;1.92;;;18.70;54.80;;;;;;2483754;54;20932;-85
2021/06/15 03:52:24;;;;;;;2.83;1.35;;;18.70;55.10;;;;;;2486234;54;20960;-87
2021/06/15 03:54:50;;;;;;;2.62;1.25;;;18.70;55.10;;;;;;2263448;56;20952;-85
2021/06/15 03:57:17;;;;;;;6.25;1.50;;;18.70;55.10;;;;;;2486276;55;21055;-85
2021/06/15 03:59:44;;;;;;;3.70;1.45;;;18.70;55.10;;;;;;2485877;55;21005;-85
2021/06/15 04:02:10;;;;;;;2.60;1.30;;;18.70;55.20;;;;;;2287365;55;20932;-86
2021/06/15 04:04:39;;;;;;;3.10;1.45;;;18.60;55.10;;;;;;2484784;54;20988;-84
2021/06/15 04:07:06;;;;;;;2.85;1.27;;;18.60;55.30;;;;;;2297389;55;21741;-86
2021/06/15 04:09:34;;;;;;;2.70;1.35;;;18.60;55.30;;;;;;2264829;54;21893;-85
2021/06/15 04:12:00;;;;;;;4.45;1.40;;;18.60;55.40;;;;;;2484204;54;20980;-87
2021/06/15 04:14:27;;;;;;;3.92;1.50;;;18.60;55.40;;;;;;2265402;56;20996;-85
2021/06/15 04:16:54;;;;;;;2.90;1.50;;;18.60;55.50;;;;;;2260382;55;21831;-84
2021/06/15 04:19:23;;;;;;;2.78;1.40;;;18.60;55.50;;;;;;2264385;54;20940;-85
2021/06/15 04:21:50;;;;;;;3.95;1.45;;;18.70;55.70;;;;;;2259772;56;20992;-84
2021/06/15 04:24:18;;;;;;;4.25;1.55;;;18.70;55.70;;;;;;2457533;55;20956;-85
2021/06/15 04:26:45;;;;;;;3.15;1.50;;;18.70;55.70;;;;;;2481091;54;21020;-85
2021/06/15 04:29:13;;;;;;;3.00;1.60;;;18.70;55.80;;;;;;2481187;54;20952;-84
2021/06/15 04:31:39;;;;;;;2.78;1.40;;;18.70;55.80;;;;;;2456520;55;20945;-87
2021/06/15 04:34:07;;;;;;;2.78;1.37;;;18.70;55.80;;;;;;2482869;55;21556;-84
2021/06/15 04:36:33;;;;;;;3.62;1.30;;;18.70;55.90;;;;;;2264290;54;21011;-86
2021/06/15 04:39:05;;;;;;;3.62;1.55;;;18.80;56.00;;;;;;2482282;55;21080;-85
2021/06/15 04:42:00;;;;;;;2.72;1.48;;;18.80;56.20;;;;;;2481988;55;20972;-83
2021/06/15 04:44:35;;;;;;;2.75;1.27;;;18.80;56.40;;;;;;2482317;55;20981;-84
2021/06/15 04:47:09;;;;;;;2.47;1.35;;;18.80;56.30;;;;;;2484662;55;22033;-85
2021/06/15 04:49:47;;;;;;;4.10;1.45;;;18.90;56.20;;;;;;2470665;55;21272;-85
2021/06/15 04:52:14;;;;;;;3.72;1.80;;;18.90;56.30;;;;;;2482748;55;21533;-86
2021/06/15 04:54:44;;;;;;;3.15;1.70;;;18.90;56.20;;;;;;2483932;55;20968;-85
2021/06/15 04:57:11;;;;;;;3.50;1.65;;;19.00;56.40;;;;;;2275977;55;20974;-85
2021/06/15 04:59:38;;;;;;;2.95;1.70;;;19.00;56.40;;;;;;2484697;55;21387;-85
2021/06/15 05:02:05;;;;;;;4.75;1.80;;;19.10;56.50;;;;;;2261932;56;20955;-86
2021/06/15 05:04:33;;;;;;;2.40;1.30;;;19.10;56.60;;;;;;2260606;55;20928;-85
2021/06/15 05:07:00;;;;;;;3.05;1.67;;;19.10;56.70;;;;;;2262602;55;21012;-84
2021/06/15 05:09:28;;;;;;;3.10;1.75;;;19.20;56.80;;;;;;2484530;55;21040;-85
2021/06/15 05:11:54;;;;;;;3.70;2.05;;;19.20;56.80;;;;;;2483158;55;20963;-86
2021/06/15 05:14:22;;;;;;;3.28;1.80;;;19.20;56.80;;;;;;2265425;55;22297;-84
2021/06/15 05:16:49;;;;;;;2.95;1.40;;;19.30;57.00;;;;;;2283449;55;22050;-82
2021/06/15 05:19:16;;;;;;;5.75;2.72;;;19.30;56.90;;;;;;2477705;54;22009;-82
2021/06/15 05:25:15;;;;;;;4.62;2.53;;;19.40;56.90;;;;;;2253546;56;21025;-82
2021/06/15 05:27:41;;;;;;;4.25;1.73;;;19.60;56.90;;;;;;2263498;55;20987;-84
2021/06/15 05:30:08;;;;;;;3.30;1.80;;;19.60;56.70;;;;;;2480188;54;21566;-81
2021/06/15 05:32:42;;;;;;;5.87;2.15;;;19.70;56.80;;;;;;2478187;55;20937;-81
2021/06/15 05:35:09;;;;;;;3.37;1.90;;;19.70;56.90;;;;;;2263582;55;21447;-81
2021/06/15 05:37:36;;;;;;;5.00;1.42;;;19.80;57.20;;;;;;2257598;55;21020;-81
2021/06/15 05:40:03;;;;;;;5.47;2.05;;;19.80;57.20;;;;;;2262407;54;20961;-81
2021/06/15 05:42:30;;;;;;;3.00;1.70;;;19.90;57.30;;;;;;2281478;54;21004;-81
2021/06/15 05:44:56;;;;;;;2.62;1.50;;;20.00;57.30;;;;;;2478334;55;20925;-81
2021/06/15 05:47:22;;;;;;;3.90;1.70;;;20.10;57.40;;;;;;2479889;55;21853;-82
2021/06/15 05:49:48;;;;;;;3.90;1.50;;;20.20;57.50;;;;;;2478801;55;21063;-81
2021/06/15 05:52:15;;;;;;;3.85;1.50;;;20.30;57.60;;;;;;2261873;55;21311;-84
2021/06/15 05:54:41;;;;;;;2.87;1.73;;;20.30;57.60;;;;;;2478951;55;21016;-82
2021/06/15 05:57:07;;;;;;;2.97;1.77;;;20.40;57.60;;;;;;2258619;55;21000;-82
2021/06/15 05:59:34;;;;;;;3.00;1.65;;;20.60;57.70;;;;;;2262049;56;20984;-82
2021/06/15 06:02:00;;;;;;;3.08;1.58;;;20.70;57.70;;;;;;2493264;55;20985;-83
2021/06/15 06:09:59;;;;;;;4.50;2.15;;;21.00;57.70;;;;;;2479411;55;21017;-83
2021/06/15 06:12:28;;;;;;;3.70;2.33;;;21.10;57.70;;;;;;2266836;56;20937;-81
2021/06/15 06:14:54;;;;;;;5.05;2.22;;;21.30;57.80;;;;;;2462531;55;20944;-82
2021/06/15 06:17:20;;;;;;;5.18;2.20;;;21.40;57.70;;;;;;2486098;55;21827;-82
2021/06/15 06:19:56;;;;;;;4.37;2.03;;;21.50;58.30;;;;;;2484612;55;21035;-81
2021/06/15 06:22:22;;;;;;;4.75;2.12;;;21.60;57.60;;;;;;2485346;55;20936;-83
2021/06/15 06:24:49;;;;;;;4.80;2.55;;;21.70;57.60;;;;;;2261164;55;20968;-83
2021/06/15 06:27:15;;;;;;;4.07;2.10;;;21.80;57.50;;;;;;2267759;55;20940;-82
2021/06/15 06:29:41;;;;;;;3.78;2.08;;;22.00;57.60;;;;;;2258558;55;20980;-82
2021/06/15 06:32:08;;;;;;;3.20;1.95;;;22.10;57.50;;;;;;2252856;56;21064;-83
2021/06/15 06:34:34;;;;;;;3.83;2.30;;;22.20;57.40;;;;;;2486425;55;20924;-83
2021/06/15 06:37:00;;;;;;;3.90;2.10;;;22.30;57.20;;;;;;2499882;54;21016;-81
2021/06/15 06:39:27;;;;;;;4.37;1.92;;;22.40;57.20;;;;;;2502283;54;20989;-83
2021/06/15 06:41:53;;;;;;;5.45;2.35;;;22.60;57.10;;;;;;2484929;55;20952;-83
2021/06/15 06:44:19;;;;;;;4.55;2.33;;;22.70;57.00;;;;;;2239344;56;20901;-83
2021/06/15 06:46:45;;;;;;;4.53;2.17;;;22.80;56.80;;;;;;2472250;55;21001;-83
2021/06/15 06:49:12;;;;;;;4.20;2.12;;;22.90;56.70;;;;;;2485920;55;20963;-83
2021/06/15 06:51:38;;;;;;;3.50;1.90;;;23.00;56.70;;;;;;2485449;55;20940;-83
2021/06/15 06:54:05;;;;;;;5.82;2.15;;;23.10;56.60;;;;;;2265576;55;20972;-83
2021/06/15 06:56:31;;;;;;;4.20;2.22;;;23.20;56.40;;;;;;2264022;55;20909;-83
2021/06/15 06:58:58;;;;;;;2.90;1.87;;;23.40;56.50;;;;;;2478712;55;20948;-83
2021/06/15 07:01:24;;;;;;;3.92;2.22;;;23.40;56.40;;;;;;2484021;55;20956;-84
2021/06/15 07:03:51;;;;;;;3.92;2.00;;;23.50;56.30;;;;;;2243814;55;21661;-82
2021/06/15 07:06:17;;;;;;;4.07;1.90;;;23.60;56.20;;;;;;2493125;55;20968;-82
2021/06/15 07:08:43;;;;;;;3.50;2.12;;;23.70;56.30;;;;;;2487954;55;21059;-83
2021/06/15 07:11:10;;;;;;;4.83;2.87;;;23.80;56.30;;;;;;2218646;54;1277251;-83
2021/06/15 07:13:36;;;;;;;4.47;2.40;;;23.90;56.00;;;;;;2267075;55;20980;-82
2021/06/15 07:16:02;;;;;;;3.47;2.20;;;24.00;56.20;;;;;;2512856;54;20941;-83
2021/06/15 07:18:29;;;;;;;4.10;2.00;;;24.10;56.20;;;;;;2517004;54;20965;-82
2021/06/15 07:20:55;;;;;;;4.32;2.20;;;24.30;56.50;;;;;;2264637;54;21032;-83
2021/06/15 07:23:21;;;;;;;4.53;1.85;;;24.40;56.40;;;;;;2506790;54;21025;-82
2021/06/15 07:25:47;;;;;;;3.35;1.80;;;24.50;56.30;;;;;;2485806;55;20985;-83
2021/06/15 07:28:14;;;;;;;4.50;1.77;;;24.60;56.10;;;;;;2261908;55;20916;-84
2021/06/15 07:30:40;;;;;;;3.25;1.77;;;24.80;56.00;;;;;;2258713;55;20936;-82
2021/06/15 07:33:14;;;;;;;3.20;1.75;;;24.90;55.90;;;;;;2481395;55;20956;-83
2021/06/15 07:35:40;;;;;;;3.50;1.80;;;25.10;55.80;;;;;;2255511;54;21014;-82
2021/06/15 07:38:07;;;;;;;3.83;1.73;;;25.20;55.50;;;;;;2259256;55;20941;-83
2021/06/15 07:40:33;;;;;;;3.75;1.95;;;25.40;55.30;;;;;;2262643;55;20939;-83
2021/06/15 07:43:00;;;;;;;3.67;1.75;;;25.40;55.00;;;;;;2489515;55;21039;-81
2021/06/15 07:45:28;;;;;;;3.65;2.00;;;25.50;54.80;;;;;;2262553;56;21043;-82
2021/06/15 07:47:54;;;;;;;3.00;1.80;;;25.60;54.60;;;;;;2483833;55;20968;-82
2021/06/15 08:00:42;;;;;;;3.60;2.10;;;25.90;54.10;;;;;;2262615;54;20944;-83
2021/06/15 08:03:09;;;;;;;4.00;2.30;;;26.10;54.40;;;;;;2481490;55;21940;-82
2021/06/15 08:05:35;;;;;;;4.28;2.20;;;26.10;54.20;;;;;;2264765;54;21021;-82
2021/06/15 08:08:01;;;;;;;5.18;2.08;;;26.10;54.00;;;;;;2263605;55;21012;-83
2021/06/15 08:10:27;;;;;;;4.82;2.42;;;26.20;54.00;;;;;;2482380;55;21028;-82
2021/06/15 08:12:54;;;;;;;3.72;2.17;;;26.30;53.80;;;;;;2266541;55;21016;-82
2021/06/15 08:15:20;;;;;;;3.95;1.77;;;26.30;53.70;;;;;;2482698;54;21788;-83
2021/06/15 08:17:46;;;;;;;5.57;2.37;;;26.40;53.70;;;;;;2483806;55;21045;-83
2021/06/15 08:20:13;;;;;;;5.28;2.30;;;26.50;53.60;;;;;;2483890;55;21782;-83
2021/06/15 08:33:03;;;;;;;4.70;2.28;;;26.70;52.80;;;;;;2474429;55;21083;-83
2021/06/15 08:35:29;;;;;;;3.87;2.10;;;26.80;53.20;;;;;;2485710;54;20932;-82
2021/06/15 08:37:55;;;;;;;4.28;1.95;;;26.80;53.10;;;;;;2254937;55;21797;-83
2021/06/15 08:40:22;;;;;;;5.03;2.17;;;26.90;53.10;;;;;;2478859;55;20948;-84
2021/06/15 08:42:48;;;;;;;4.00;2.12;;;27.00;53.10;;;;;;2268277;54;20913;-83
2021/06/15 08:45:17;;;;;;;4.60;2.10;;;27.00;52.70;;;;;;2263384;54;20956;-83
2021/06/15 08:47:44;;;;;;;4.12;2.50;;;27.10;52.50;;;;;;2439875;55;21355;-82
2021/06/15 08:50:13;;;;;;;6.05;2.12;;;27.10;52.50;;;;;;2458956;54;21041;-83
2021/06/15 08:52:40;;;;;;;3.22;1.95;;;27.20;52.40;;;;;;2258086;56;20971;-82
2021/06/15 08:55:08;;;;;;;6.05;2.25;;;27.20;52.30;;;;;;2232333;56;21026;-84
2021/06/15 08:57:35;;;;;;;5.35;2.47;;;27.30;52.10;;;;;;2453274;55;20962;-82
2021/06/15 09:00:04;;;;;;;4.35;2.10;;;27.40;52.00;;;;;;2453778;55;20980;-83
2021/06/15 09:02:30;;;;;;;5.00;2.42;;;27.50;52.00;;;;;;2238437;55;20986;-83
2021/06/15 09:04:57;;;;;;;4.07;1.95;;;27.50;52.00;;;;;;2238491;56;20922;-83
2021/06/15 09:07:24;;;;;;;6.68;2.25;;;27.60;51.80;;;;;;2236427;56;21839;-83
2021/06/15 09:09:50;;;;;;;3.90;2.05;;;27.60;51.70;;;;;;2239834;56;21449;-83
2021/06/15 09:12:19;;;;;;;6.25;2.42;;;27.60;51.70;;;;;;2238741;55;21511;-83
2021/06/15 09:14:49;;;;;;;2.95;1.73;;;27.70;51.50;;;;;;2235831;56;20978;-81
2021/06/15 09:18:17;;;;;;;4.28;2.00;;;27.80;51.00;;;;;;2236069;56;21766;-83
2021/06/15 09:20:43;;;;;;;2.80;1.52;;;27.80;50.90;;;;;;2239361;56;20970;-84
2021/06/15 09:23:15;;;;;;;4.62;1.70;;;27.90;50.90;;;;;;2452065;55;20967;-83
2021/06/15 09:25:47;;;;;;;4.10;1.87;;;27.90;50.90;;;;;;2451554;55;20954;-83
2021/06/15 09:28:20;;;;;;;3.30;1.70;;;28.00;50.80;;;;;;2458278;55;20960;-82
2021/06/15 09:31:08;;;;;;;3.67;1.70;;;28.00;50.70;;;;;;2463952;55;21827;-82
2021/06/15 09:33:39;;;;;;;3.50;1.87;;;28.10;50.30;;;;;;2269898;54;20980;-82
2021/06/15 09:36:27;;;;;;;3.25;1.77;;;28.10;50.50;;;;;;2477404;55;21124;-82
2021/06/15 09:39:01;;;;;;;3.53;1.60;;;28.30;50.00;;;;;;2489631;55;21016;-82
2021/06/15 09:42:00;;;;;;;4.75;1.87;;;28.30;50.90;;;;;;2266374;55;21011;-82
2021/06/15 09:44:29;;;;;;;3.95;1.83;;;28.40;49.50;;;;;;2250363;56;20940;-83
2021/06/15 09:47:00;;;;;;;3.45;1.60;;;28.50;50.00;;;;;;2266117;55;20943;-83
2021/06/15 09:49:47;;;;;;;3.17;1.65;;;28.50;49.70;;;;;;2490459;54;20991;-83
2021/06/15 09:52:24;;;;;;;3.30;1.37;;;28.60;49.00;;;;;;2488548;55;21329;-82
2021/06/15 09:54:52;;;;;;;4.28;1.50;;;28.60;49.30;;;;;;2268544;55;21044;-83
2021/06/15 09:57:40;;;;;;;3.00;1.60;;;28.70;49.60;;;;;;2489013;55;20948;-82
2021/06/15 10:00:28;;;;;;;12.68;1.90;;;28.80;49.70;;;;;;2265993;55;21051;-83
2021/06/15 10:02:58;;;;;;;3.47;1.83;;;28.90;49.30;;;;;;2490063;55;21023;-85
2021/06/15 10:05:42;;;;;;;3.87;1.75;;;28.90;49.40;;;;;;2269759;55;21863;-84
2021/06/15 10:08:11;;;;;;;3.70;1.90;;;29.00;49.10;;;;;;2260710;55;20999;-83
2021/06/15 10:10:40;;;;;;;3.87;1.98;;;29.10;49.50;;;;;;2488389;55;21015;-83
2021/06/15 10:13:06;;;;;;;3.65;1.90;;;29.20;49.00;;;;;;2268929;55;21055;-83
2021/06/15 10:15:33;;;;;;;3.58;1.50;;;29.20;48.70;;;;;;2264825;55;21049;-83
2021/06/15 10:17:59;;;;;;;4.05;1.65;;;29.30;48.60;;;;;;2509384;54;20952;-81
2021/06/15 10:20:27;;;;;;;5.15;1.87;;;29.30;48.60;;;;;;2268111;54;20936;-82
2021/06/15 10:22:54;;;;;;;5.60;2.00;;;29.40;48.60;;;;;;2488669;55;21074;-82
2021/06/15 10:25:21;;;;;;;4.12;2.22;;;29.40;48.40;;;;;;2286201;54;21833;-82
2021/06/15 10:27:49;;;;;;;6.10;2.33;;;29.50;48.20;;;;;;2487668;55;20963;-82
2021/06/15 10:30:26;;;;;;;4.32;1.80;;;29.50;48.00;;;;;;2427831;55;21031;-81
2021/06/15 10:32:57;;;;;;;4.72;1.92;;;29.60;47.90;;;;;;2434175;55;20989;-81
2021/06/15 10:35:47;;;;;;;3.65;2.00;;;29.60;47.80;;;;;;2261092;55;21050;-83
2021/06/15 10:38:40;;;;;;;3.97;2.05;;;29.70;47.50;;;;;;2257511;55;20998;-81
2021/06/15 10:41:06;;;;;;;4.62;1.95;;;29.70;47.90;;;;;;2244376;55;21010;-82
2021/06/15 10:43:54;;;;;;;4.25;2.22;;;29.80;48.00;;;;;;2257771;55;21826;-82
2021/06/15 10:46:28;;;;;;;3.22;1.80;;;29.90;47.50;;;;;;2479917;55;21331;-82
2021/06/15 10:49:13;;;;;;;3.10;1.70;;;29.90;47.80;;;;;;2477661;55;21050;-81
2021/06/15 10:51:54;;;;;;;3.47;1.85;;;30.00;47.30;;;;;;2256533;55;21006;-81
2021/06/15 10:54:42;;;;;;;3.65;1.85;;;30.00;47.10;;;;;;2476476;55;20950;-82
2021/06/15 10:57:29;;;;;;;6.35;2.30;;;30.00;46.90;;;;;;2481054;55;20946;-82
2021/06/15 11:00:10;;;;;;;5.03;2.08;;;30.10;47.20;;;;;;2472797;55;20975;-82
2021/06/15 11:02:36;;;;;;;3.87;1.98;;;30.10;47.40;;;;;;2468188;55;20934;-81
2021/06/15 11:12:51;;;;;;;3.70;1.90;;;30.20;47.50;;;;;;2473370;55;20970;-81
2021/06/15 11:15:21;;;;;;;3.05;1.40;;;30.50;47.40;;;;;;2468517;55;20986;-82
2021/06/15 11:17:52;;;;;;;2.97;1.52;;;30.50;47.20;;;;;;2260408;55;21002;-81
2021/06/15 11:20:26;;;;;;;3.50;1.77;;;30.50;46.70;;;;;;2477478;55;20999;-81
2021/06/15 11:23:12;;;;;;;3.53;1.83;;;30.60;46.40;;;;;;2244965;55;21026;-80
2021/06/15 11:25:54;;;;;;;3.40;1.73;;;30.60;46.20;;;;;;2479437;55;20957;-81
2021/06/15 11:35:18;;;;;;;4.80;1.70;;;30.70;46.10;;;;;;2477169;55;21035;-82
2021/06/15 11:37:46;;;;;;;3.05;1.27;;;30.90;46.40;;;;;;2464554;55;20974;-81
2021/06/15 11:40:35;;;;;;;4.00;1.50;;;30.90;46.20;;;;;;2479627;55;20998;-81
2021/06/15 11:43:22;;;;;;;3.08;1.50;;;30.90;45.30;;;;;;2259314;55;21063;-82
2021/06/15 11:45:50;;;;;;;3.12;1.50;;;31.00;44.90;;;;;;2261234;55;21006;-81
2021/06/15 11:48:22;;;;;;;2.53;1.12;;;31.00;45.60;;;;;;2476962;55;20982;-82
2021/06/15 11:50:55;;;;;;;3.22;1.30;;;31.00;45.30;;;;;;2256142;55;21805;-82
2021/06/15 11:53:24;;;;;;;2.90;1.40;;;31.10;45.00;;;;;;2477982;55;21027;-82
2021/06/15 11:55:54;;;;;;;3.42;1.50;;;31.20;45.10;;;;;;2257483;55;21077;-82
2021/06/15 11:58:25;;;;;;;2.72;1.27;;;31.20;45.00;;;;;;2262417;55;20974;-82
2021/06/15 12:01:03;;;;;;;3.47;1.50;;;31.30;44.80;;;;;;2261302;55;20995;-81
2021/06/15 12:03:34;;;;;;;3.62;1.37;;;31.40;45.00;;;;;;2257386;55;21034;-82
2021/06/15 12:06:00;;;;;;;3.55;1.55;;;31.40;44.70;;;;;;2480590;55;21039;-81
2021/06/15 12:08:33;;;;;;;2.80;1.35;;;31.50;44.80;;;;;;2478576;55;20982;-82
2021/06/15 12:11:00;;;;;;;3.15;1.25;;;31.50;44.50;;;;;;2479721;55;21367;-84
2021/06/15 12:13:35;;;;;;;2.83;1.27;;;31.70;44.50;;;;;;2477477;55;21082;-82
2021/06/15 12:16:38;;;;;;;4.07;1.17;;;31.70;43.40;;;;;;2477180;55;21042;-83
2021/06/15 12:19:04;;;;;;;3.42;1.40;;;31.80;43.40;;;;;;2480083;55;20966;-82
2021/06/15 12:21:33;;;;;;;3.75;1.10;;;31.80;43.90;;;;;;2478624;55;20947;-82
2021/06/15 12:24:04;;;;;;;3.33;1.00;;;31.90;43.50;;;;;;2477561;55;21046;-82
2021/06/15 12:26:33;;;;;;;3.08;1.30;;;31.90;42.60;;;;;;2259735;55;21014;-84
2021/06/15 12:29:09;;;;;;;2.60;1.20;;;32.00;42.80;;;;;;2264752;55;20987;-84
2021/06/15 12:31:37;;;;;;;2.62;1.08;;;32.00;42.40;;;;;;2471289;54;20931;-83
2021/06/15 12:34:08;;;;;;;3.17;1.30;;;32.10;43.00;;;;;;2261771;55;20947;-86
2021/06/15 12:36:36;;;;;;;2.67;1.20;;;32.10;42.60;;;;;;2262117;55;21058;-85
2021/06/15 12:39:21;;;;;;;3.10;1.30;;;32.10;42.60;;;;;;2481275;55;22015;-85
2021/06/15 12:41:51;;;;;;;2.47;1.30;;;32.20;42.10;;;;;;2259729;55;20958;-86
2021/06/15 12:44:17;;;;;;;2.70;1.30;;;32.30;42.10;;;;;;2482486;55;20987;-83
2021/06/15 12:46:44;;;;;;;5.18;1.17;;;32.30;42.00;;;;;;2264283;55;21010;-84
2021/06/15 12:49:21;;;;;;;3.92;1.42;;;32.40;41.70;;;;;;2272571;55;20979;-84
2021/06/15 12:51:51;;;;;;;2.25;0.80;;;32.40;40.70;;;;;;2258152;55;21015;-84
2021/06/15 12:54:22;;;;;;;2.25;1.08;;;32.40;41.00;;;;;;2261387;55;20999;-85
2021/06/15 12:56:59;;;;;;;2.17;1.10;;;32.40;40.80;;;;;;2482666;55;20982;-88
2021/06/15 12:59:26;;;;;;;3.35;1.40;;;32.40;40.40;;;;;;2480367;55;20988;-84
2021/06/15 13:01:54;;;;;;;4.85;1.00;;;32.40;40.50;;;;;;2260208;55;20987;-83
2021/06/15 13:04:27;;;;;;;2.42;1.00;;;32.40;40.30;;;;;;2481556;55;20954;-84
2021/06/15 13:06:58;;;;;;;2.15;0.90;;;32.40;40.10;;;;;;2262367;55;21033;-83
2021/06/15 13:09:28;;;;;;;2.40;1.08;;;32.40;39.80;;;;;;2483120;55;21535;-84
2021/06/15 13:12:07;;;;;;;2.85;1.20;;;32.30;39.60;;;;;;2266109;55;21046;-85
2021/06/15 13:14:35;;;;;;;2.85;1.23;;;32.40;39.60;;;;;;2276145;55;21080;-85
2021/06/15 13:17:07;;;;;;;2.65;1.17;;;32.40;39.80;;;;;;2264455;55;20978;-84
2021/06/15 13:19:40;;;;;;;;;;;32.40;39.80;;;;;;2487731;55;22004;-84
2021/06/15 13:22:06;;;;;;;2.92;1.20;;;32.40;40.20;;;;;;2484646;54;20035;-85
2021/06/15 13:24:42;;;;;;;3.28;0.93;;;32.50;40.30;;;;;;2265253;55;20935;-84
2021/06/15 13:30:40;;;;;;;2.97;1.40;;;32.50;39.70;;;;;;2482335;55;21050;-84
2021/06/15 13:33:11;;;;;;;2.05;0.88;;;32.60;40.50;;;;;;2460547;55;21042;-84
2021/06/15 13:35:47;;;;;;;2.60;1.08;;;32.70;40.40;;;;;;2261606;55;20986;-84
2021/06/15 13:38:18;;;;;;;2.55;1.00;;;32.70;39.20;;;;;;2481862;54;21053;-85
2021/06/15 13:40:46;;;;;;;2.40;1.15;;;32.80;39.10;;;;;;2483745;55;21044;-83
2021/06/15 13:43:43;;;;;;;2.17;0.90;;;32.80;39.00;;;;;;2483053;55;21843;-85
2021/06/15 13:46:10;;;;;;;2.42;0.90;;;32.80;37.70;;;;;;2477141;55;20990;-84
2021/06/15 13:48:39;;;;;;;1.83;0.82;;;32.90;38.70;;;;;;2467331;55;20986;-83
2021/06/15 13:51:13;;;;;;;2.17;1.02;;;33.00;38.80;;;;;;2481777;55;21034;-83
2021/06/15 13:53:39;;;;;;;2.10;0.85;;;33.00;38.70;;;;;;2264306;55;21360;-83
2021/06/15 13:56:06;;;;;;;2.17;0.90;;;33.10;38.90;;;;;;2265230;55;21034;-83
2021/06/15 13:58:33;;;;;;;1.60;0.68;;;33.20;38.40;;;;;;2263502;55;20970;-85